Accueil
METAR-TAF:

METAR-TAF

Aéroports :

Aéroport d'Aurigny

Aurigny,

latitude: 49-43N, longitude: 002-12W, altitude: 71 m

Observation

Le bulletin a été fait il y a 7 heures et 47 minutes, à 18:20 UTC
Vent 20 kt de nord-ouest
Température 10°C
Humidité 82%
Pression 1023 hPa
Visibilité 10 km ou plus
Nuages épars à une hauteur de 2500 ft

METAR: EGJA 091820Z 31020KT 9999 SCT025 10/07 Q1023

Heure: 02:07 (02:07 UTC)

Prévision

Le bulletin a été fait il y a 12 heures et 12 minutes, à 13:55 UTC
Prévision valable du 09 à 15 UTC au 09 à 19 UTC
Vent 25 kt de ouest/nord-ouest avec des rafales jusqu'à 38 kt
Visibilité 10 km ou plus
Quelques nuages à une hauteur de 1500 ft
Nuages épars à une hauteur de 2200 ft
Probabilité 40% :
Temporairement
du 09 à 15 UTC au 09 à 19 UTC
Visibilité: 8000 m
faibles averses de pluie

TAF: EGJA 091355Z 0915/0919 30025G38KT 9999 FEW015 SCT022 PROB40 TEMPO 0915/0919 8000 -SHRA

Observations et prévisions météorologiques de plus de 4000 aéroports (messages METAR et TAF).

Les stations disponibles sont représentées par des disques jaunes et rouges sur la carte.

Passer la souris dessus pour voir le nom de la station.

Cliquer dessus pour voir les observations et prévisions météorologiques.

Pour changer de carte: cliquez sur les boutons verts avec une croix noire pour zoomer, sur le bouton vert avec un tiret pour effectuer un zoom arrière, ou sur les flèches vertes pour les cartes adjacentes.


METAR-TAF: